TimeCDT,TemperatureF,Dew PointF,Humidity,Sea Level PressureIn,VisibilityMPH,Wind Direction,Wind SpeedMPH,Gust SpeedMPH,PrecipitationIn,Events,Conditions,WindDirDegrees,DateUTC
12:51 AM,62.1,53.1,72,29.87,10.0,North,4.6,-,N/A,,Clear,350,2013-09-22 05:51:00
1:51 AM,62.1,53.1,72,29.88,10.0,NNW,4.6,-,N/A,,Clear,330,2013-09-22 06:51:00
2:51 AM,57.0,54.0,89,29.88,10.0,NNW,3.5,-,N/A,,Clear,340,2013-09-22 07:51:00
3:51 AM,55.9,54.0,93,29.86,10.0,NNW,3.5,-,N/A,,Clear,330,2013-09-22 08:51:00
4:51 AM,57.0,52.0,83,29.86,10.0,Calm,Calm,-,N/A,,Clear,0,2013-09-22 09:51:00
5:51 AM,55.9,53.1,90,29.86,10.0,Calm,Calm,-,N/A,,Clear,0,2013-09-22 10:51:00
6:51 AM,55.0,52.0,89,29.88,10.0,NNW,3.5,-,N/A,,Clear,330,2013-09-22 11:51:00
7:51 AM,59.0,55.0,87,29.89,10.0,NW,5.8,-,N/A,,Clear,310,2013-09-22 12:51:00
8:51 AM,64.0,57.9,80,29.92,10.0,North,4.6,-,N/A,,Clear,360,2013-09-22 13:51:00
9:51 AM,69.1,57.9,68,29.93,10.0,NNE,3.5,-,N/A,,Clear,30,2013-09-22 14:51:00
10:51 AM,73.0,54.0,51,29.94,10.0,East,8.1,-,N/A,,Clear,90,2013-09-22 15:51:00
11:51 AM,77.0,52.0,42,29.92,10.0,NE,8.1,-,N/A,,Clear,40,2013-09-22 16:51:00
12:51 PM,79.0,51.1,38,29.90,10.0,NNE,10.4,16.1,N/A,,Clear,30,2013-09-22 17:51:00
1:51 PM,81.0,51.1,35,29.87,10.0,NNE,10.4,17.3,N/A,,Clear,20,2013-09-22 18:51:00
2:51 PM,82.9,50.0,32,29.84,10.0,NE,10.4,-,N/A,,Clear,40,2013-09-22 19:51:00
3:51 PM,82.9,48.0,29,29.81,10.0,NNE,9.2,-,N/A,,Clear,20,2013-09-22 20:51:00
4:51 PM,82.9,48.0,29,29.80,10.0,East,9.2,16.1,N/A,,Clear,80,2013-09-22 21:51:00
5:51 PM,82.9,48.0,29,29.79,10.0,Variable,6.9,-,N/A,,Clear,0,2013-09-22 22:51:00
6:51 PM,79.0,48.9,35,29.79,10.0,East,5.8,-,N/A,,Clear,80,2013-09-22 23:51:00
7:51 PM,73.9,48.9,41,29.80,10.0,East,3.5,-,N/A,,Clear,100,2013-09-23 00:51:00
8:51 PM,72.0,50.0,46,29.81,10.0,East,5.8,-,N/A,,Clear,80,2013-09-23 01:51:00
9:51 PM,66.9,52.0,59,29.82,10.0,East,4.6,-,N/A,,Clear,80,2013-09-23 02:51:00
10:51 PM,62.1,54.0,75,29.82,10.0,Calm,Calm,-,N/A,,Clear,0,2013-09-23 03:51:00
11:51 PM,66.0,52.0,60,29.82,10.0,East,3.5,-,N/A,,Clear,90,2013-09-23 04:51:00